sensor_id;sensor_type;location;lat;lon;timestamp;pressure;altitude;pressure_sealevel;temperature;humidity
39449;BME280;25151;45.566;9.382;2022-07-29T00:02:45;99589.50;;;29.24;43.26
39449;BME280;25151;45.566;9.382;2022-07-29T00:05:46;99587.44;;;29.24;43.50
39449;BME280;25151;45.566;9.382;2022-07-29T00:08:47;99586.66;;;29.24;43.45
39449;BME280;25151;45.566;9.382;2022-07-29T00:11:48;99584.59;;;29.24;43.15
39449;BME280;25151;45.566;9.382;2022-07-29T00:14:49;99583.84;;;29.24;43.57
39449;BME280;25151;45.566;9.382;2022-07-29T00:17:49;99569.63;;;29.24;43.22
39449;BME280;25151;45.566;9.382;2022-07-29T00:20:50;99566.78;;;29.24;43.39
39449;BME280;25151;45.566;9.382;2022-07-29T00:23:51;99563.19;;;29.23;43.26
39449;BME280;25151;45.566;9.382;2022-07-29T00:26:52;99572.19;;;29.22;43.10
39449;BME280;25151;45.566;9.382;2022-07-29T00:29:52;99574.53;;;29.23;43.45
39449;BME280;25151;45.566;9.382;2022-07-29T00:32:53;99577.38;;;29.23;43.72
39449;BME280;25151;45.566;9.382;2022-07-29T00:35:54;99574.53;;;29.23;43.50
39449;BME280;25151;45.566;9.382;2022-07-29T00:38:54;99586.66;;;29.24;43.45
39449;BME280;25151;45.566;9.382;2022-07-29T00:41:55;99592.34;;;29.24;43.26
39449;BME280;25151;45.566;9.382;2022-07-29T00:44:56;99585.91;;;29.23;43.84
39449;BME280;25151;45.566;9.382;2022-07-29T00:48:01;99591.59;;;29.23;43.75
39449;BME280;25151;45.566;9.382;2022-07-29T00:51:05;99581.00;;;29.24;43.41
39449;BME280;25151;45.566;9.382;2022-07-29T00:54:07;99580.22;;;29.23;43.50
39449;BME280;25151;45.566;9.382;2022-07-29T00:57:08;99590.00;;;29.22;43.85
39449;BME280;25151;45.566;9.382;2022-07-29T01:00:17;99580.22;;;29.23;43.88
39449;BME280;25151;45.566;9.382;2022-07-29T01:03:18;99587.44;;;29.24;43.53
39449;BME280;25151;45.566;9.382;2022-07-29T01:06:20;99587.44;;;29.24;43.86
39449;BME280;25151;45.566;9.382;2022-07-29T01:09:21;99590.00;;;29.22;43.53
39449;BME280;25151;45.566;9.382;2022-07-29T01:12:26;99592.34;;;29.24;44.02
39449;BME280;25151;45.566;9.382;2022-07-29T01:15:28;99586.66;;;29.24;44.13
39449;BME280;25151;45.566;9.382;2022-07-29T01:18:39;99580.22;;;29.23;44.03
39449;BME280;25151;45.566;9.382;2022-07-29T01:21:51;99575.31;;;29.24;44.03
39449;BME280;25151;45.566;9.382;2022-07-29T01:34:52;99559.56;;;29.23;43.83
39449;BME280;25151;45.566;9.382;2022-07-29T01:41:11;99558.28;;;29.24;44.05
39449;BME280;25151;45.566;9.382;2022-07-29T01:44:19;99553.38;;;29.24;44.06
39449;BME280;25151;45.566;9.382;2022-07-29T01:47:23;99551.81;;;29.23;44.29
39449;BME280;25151;45.566;9.382;2022-07-29T01:50:35;99563.97;;;29.24;43.80
39449;BME280;25151;45.566;9.382;2022-07-29T01:53:42;99568.88;;;29.23;44.00
39449;BME280;25151;45.566;9.382;2022-07-29T01:56:47;99562.41;;;29.23;43.89
39449;BME280;25151;45.566;9.382;2022-07-29T01:59:50;99572.97;;;29.22;44.18
39449;BME280;25151;45.566;9.382;2022-07-29T02:02:53;99564.44;;;29.22;44.03
39449;BME280;25151;45.566;9.382;2022-07-29T02:05:59;99563.19;;;29.23;44.11
39449;BME280;25151;45.566;9.382;2022-07-29T02:09:02;99558.28;;;29.12;43.89
39449;BME280;25151;45.566;9.382;2022-07-29T02:12:04;99570.34;;;28.90;44.19
39449;BME280;25151;45.566;9.382;2022-07-29T02:15:07;99582.47;;;28.80;44.22
39449;BME280;25151;45.566;9.382;2022-07-29T02:18:12;99580.66;;;28.71;44.17
39449;BME280;25151;45.566;9.382;2022-07-29T02:21:15;99585.00;;;28.66;44.66
39449;BME280;25151;45.566;9.382;2022-07-29T02:24:19;99583.69;;;28.56;44.72
39449;BME280;25151;45.566;9.382;2022-07-29T02:27:22;99580.59;;;28.54;45.22
39449;BME280;25151;45.566;9.382;2022-07-29T02:30:25;99576.72;;;28.52;45.34
39449;BME280;25151;45.566;9.382;2022-07-29T02:33:28;99573.59;;;28.50;45.75
39449;BME280;25151;45.566;9.382;2022-07-29T02:36:31;99567.69;;;28.48;46.20
39449;BME280;25151;45.566;9.382;2022-07-29T02:39:34;99563.03;;;28.45;46.26
39449;BME280;25151;45.566;9.382;2022-07-29T02:42:36;99574.09;;;28.42;46.44
39449;BME280;25151;45.566;9.382;2022-07-29T02:45:38;99576.41;;;28.38;46.87
39449;BME280;25151;45.566;9.382;2022-07-29T02:48:46;99569.72;;;28.41;46.73
39449;BME280;25151;45.566;9.382;2022-07-29T02:52:06;99572.50;;;28.36;47.02
39449;BME280;25151;45.566;9.382;2022-07-29T02:55:32;99579.19;;;28.33;46.91
39449;BME280;25151;45.566;9.382;2022-07-29T02:58:38;99572.72;;;28.27;47.16
39449;BME280;25151;45.566;9.382;2022-07-29T03:01:42;99577.09;;;28.22;47.36
39449;BME280;25151;45.566;9.382;2022-07-29T03:04:44;99579.66;;;28.20;47.57
39449;BME280;25151;45.566;9.382;2022-07-29T03:07:54;99586.59;;;28.19;47.45
39449;BME280;25151;45.566;9.382;2022-07-29T03:10:56;99591.72;;;28.15;47.56
39449;BME280;25151;45.566;9.382;2022-07-29T03:13:57;99580.41;;;28.15;47.70
39449;BME280;25151;45.566;9.382;2022-07-29T03:16:59;99589.13;;;28.06;48.29
39449;BME280;25151;45.566;9.382;2022-07-29T03:20:01;99585.75;;;28.02;47.98
39449;BME280;25151;45.566;9.382;2022-07-29T03:23:01;99581.38;;;28.01;48.32
39449;BME280;25151;45.566;9.382;2022-07-29T03:26:02;99583.94;;;27.99;48.66
39449;BME280;25151;45.566;9.382;2022-07-29T03:29:03;99581.56;;;27.91;48.72
39449;BME280;25151;45.566;9.382;2022-07-29T03:32:05;99580.53;;;27.89;48.76
39449;BME280;25151;45.566;9.382;2022-07-29T03:35:06;99590.31;;;27.88;48.69
39449;BME280;25151;45.566;9.382;2022-07-29T03:38:07;99586.19;;;27.89;48.75
39449;BME280;25151;45.566;9.382;2022-07-29T03:41:10;99593.94;;;27.88;49.13
39449;BME280;25151;45.566;9.382;2022-07-29T03:44:12;99599.84;;;27.90;48.86
39449;BME280;25151;45.566;9.382;2022-07-29T03:47:14;99594.94;;;27.85;49.30
39449;BME280;25151;45.566;9.382;2022-07-29T03:50:18;99588.97;;;27.83;49.28
39449;BME280;25151;45.566;9.382;2022-07-29T03:53:21;99591.47;;;27.70;49.66
39449;BME280;25151;45.566;9.382;2022-07-29T03:56:23;99585.78;;;27.70;49.36
39449;BME280;25151;45.566;9.382;2022-07-29T03:59:24;99587.56;;;27.67;49.62
39449;BME280;25151;45.566;9.382;2022-07-29T04:02:29;99583.16;;;27.61;49.71
39449;BME280;25151;45.566;9.382;2022-07-29T04:05:30;99590.81;;;27.55;49.69
39449;BME280;25151;45.566;9.382;2022-07-29T04:08:32;99603.69;;;27.56;50.08
39449;BME280;25151;45.566;9.382;2022-07-29T04:11:33;99589.59;;;27.61;50.33
39449;BME280;25151;45.566;9.382;2022-07-29T04:14:35;99595.50;;;27.58;50.35
39449;BME280;25151;45.566;9.382;2022-07-29T04:17:35;99595.47;;;27.52;50.40
39449;BME280;25151;45.566;9.382;2022-07-29T04:20:36;99588.44;;;27.48;50.83
39449;BME280;25151;45.566;9.382;2022-07-29T04:23:36;99595.41;;;27.46;50.50
39449;BME280;25151;45.566;9.382;2022-07-29T04:26:37;99588.19;;;27.45;50.90
39449;BME280;25151;45.566;9.382;2022-07-29T04:29:37;99592.09;;;27.48;51.10
39449;BME280;25151;45.566;9.382;2022-07-29T04:32:38;99596.94;;;27.48;50.92
39449;BME280;25151;45.566;9.382;2022-07-29T04:35:38;99605.44;;;27.48;50.98
39449;BME280;25151;45.566;9.382;2022-07-29T04:38:39;99614.22;;;27.50;51.08
39449;BME280;25151;45.566;9.382;2022-07-29T04:41:40;99614.22;;;27.50;50.74
39449;BME280;25151;45.566;9.382;2022-07-29T04:44:40;99614.41;;;27.40;51.01
39449;BME280;25151;45.566;9.382;2022-07-29T04:47:41;99611.31;;;27.38;51.57
39449;BME280;25151;45.566;9.382;2022-07-29T04:50:42;99611.81;;;27.37;51.27
39449;BME280;25151;45.566;9.382;2022-07-29T04:53:42;99622.84;;;27.35;51.07
39449;BME280;25151;45.566;9.382;2022-07-29T04:56:43;99632.13;;;27.35;50.97
39449;BME280;25151;45.566;9.382;2022-07-29T04:59:43;99632.13;;;27.35;50.94
39449;BME280;25151;45.566;9.382;2022-07-29T05:02:45;99633.41;;;27.34;51.11
39449;BME280;25151;45.566;9.382;2022-07-29T05:05:46;99638.81;;;27.32;50.93
39449;BME280;25151;45.566;9.382;2022-07-29T05:08:46;99641.13;;;27.34;51.32
39449;BME280;25151;45.566;9.382;2022-07-29T05:11:47;99637.06;;;27.40;50.88
39449;BME280;25151;45.566;9.382;2022-07-29T05:14:48;99642.84;;;27.26;50.83
39449;BME280;25151;45.566;9.382;2022-07-29T05:17:48;99644.63;;;27.23;51.05
39449;BME280;25151;45.566;9.382;2022-07-29T05:20:49;99657.25;;;27.28;51.12
39449;BME280;25151;45.566;9.382;2022-07-29T05:23:51;99650.28;;;27.23;50.97
39449;BME280;25151;45.566;9.382;2022-07-29T05:26:51;99646.75;;;27.08;50.98
39449;BME280;25151;45.566;9.382;2022-07-29T05:29:52;99657.41;;;27.13;50.90
39449;BME280;25151;45.566;9.382;2022-07-29T05:32:54;99659.00;;;27.19;51.06
39449;BME280;25151;45.566;9.382;2022-07-29T05:35:56;99665.50;;;27.26;50.96
39449;BME280;25151;45.566;9.382;2022-07-29T05:38:57;99659.06;;;27.25;50.75
39449;BME280;25151;45.566;9.382;2022-07-29T05:41:58;99661.91;;;27.25;50.43
39449;BME280;25151;45.566;9.382;2022-07-29T05:44:59;99666.06;;;27.30;50.45
39449;BME280;25151;45.566;9.382;2022-07-29T05:48:00;99667.81;;;27.27;49.88
39449;BME280;25151;45.566;9.382;2022-07-29T05:51:01;99666.28;;;27.26;49.85
39449;BME280;25151;45.566;9.382;2022-07-29T05:54:02;99663.78;;;27.34;48.97
39449;BME280;25151;45.566;9.382;2022-07-29T05:57:03;99673.31;;;27.36;48.77
39449;BME280;25151;45.566;9.382;2022-07-29T06:00:04;99673.81;;;27.35;48.38
39449;BME280;25151;45.566;9.382;2022-07-29T06:03:05;99684.66;;;27.36;47.79
39449;BME280;25151;45.566;9.382;2022-07-29T06:06:05;99679.25;;;27.38;47.64
39449;BME280;25151;45.566;9.382;2022-07-29T06:09:07;99672.81;;;27.38;47.24
39449;BME280;25151;45.566;9.382;2022-07-29T06:12:08;99662.25;;;27.38;46.69
39449;BME280;25151;45.566;9.382;2022-07-29T06:15:09;99664.03;;;27.36;46.17
39449;BME280;25151;45.566;9.382;2022-07-29T06:18:12;99665.88;;;27.39;46.14
39449;BME280;25151;45.566;9.382;2022-07-29T06:21:13;99667.47;;;27.45;45.72
39449;BME280;25151;45.566;9.382;2022-07-29T06:24:15;99676.75;;;27.46;45.70
39449;BME280;25151;45.566;9.382;2022-07-29T06:27:16;99675.69;;;27.43;45.15
39449;BME280;25151;45.566;9.382;2022-07-29T06:30:16;99673.91;;;27.46;44.91
39449;BME280;25151;45.566;9.382;2022-07-29T06:33:18;99670.56;;;27.48;44.54
39449;BME280;25151;45.566;9.382;2022-07-29T06:36:19;99663.66;;;27.49;44.45
39449;BME280;25151;45.566;9.382;2022-07-29T06:39:20;99664.25;;;27.58;44.67
39449;BME280;25151;45.566;9.382;2022-07-29T06:42:20;99668.94;;;27.67;44.46
39449;BME280;25151;45.566;9.382;2022-07-29T06:45:21;99682.09;;;27.70;44.58
39449;BME280;25151;45.566;9.382;2022-07-29T06:48:22;99676.19;;;27.68;44.33
39449;BME280;25151;45.566;9.382;2022-07-29T06:51:29;99677.22;;;27.70;44.18
39449;BME280;25151;45.566;9.382;2022-07-29T06:54:59;99670.03;;;27.17;44.74
39449;BME280;25151;45.566;9.382;2022-07-29T06:57:59;99679.25;;;27.38;45.07
39449;BME280;25151;45.566;9.382;2022-07-29T07:01:03;99675.25;;;27.51;44.63
39449;BME280;25151;45.566;9.382;2022-07-29T07:04:04;99680.47;;;27.58;44.28
39449;BME280;25151;45.566;9.382;2022-07-29T07:07:05;99666.47;;;27.49;44.39
39449;BME280;25151;45.566;9.382;2022-07-29T07:10:06;99671.41;;;27.54;44.28
39449;BME280;25151;45.566;9.382;2022-07-29T07:13:07;99674.06;;;27.63;44.24
39449;BME280;25151;45.566;9.382;2022-07-29T07:16:07;99675.25;;;27.77;43.99
39449;BME280;25151;45.566;9.382;2022-07-29T07:19:08;99671.94;;;27.84;43.85
39449;BME280;25151;45.566;9.382;2022-07-29T07:22:09;99674.28;;;27.91;43.92
39449;BME280;25151;45.566;9.382;2022-07-29T07:25:12;99672.00;;;27.95;44.05
39449;BME280;25151;45.566;9.382;2022-07-29T07:28:13;99665.84;;;27.97;44.14
39449;BME280;25151;45.566;9.382;2022-07-29T07:31:13;99667.94;;;28.02;44.09
39449;BME280;25151;45.566;9.382;2022-07-29T07:34:14;99671.06;;;28.04;43.65
39449;BME280;25151;45.566;9.382;2022-07-29T07:37:15;99663.59;;;28.06;43.94
39449;BME280;25151;45.566;9.382;2022-07-29T07:40:15;99659.75;;;28.09;43.89
39449;BME280;25151;45.566;9.382;2022-07-29T07:43:16;99656.41;;;28.11;43.73
39449;BME280;25151;45.566;9.382;2022-07-29T07:46:16;99664.91;;;28.11;43.91
39449;BME280;25151;45.566;9.382;2022-07-29T07:49:17;99662.59;;;28.15;43.65
39449;BME280;25151;45.566;9.382;2022-07-29T07:52:19;99665.44;;;28.15;44.10
39449;BME280;25151;45.566;9.382;2022-07-29T07:55:20;99662.88;;;28.17;44.03
39449;BME280;25151;45.566;9.382;2022-07-29T07:58:21;99648.72;;;28.17;43.76
39449;BME280;25151;45.566;9.382;2022-07-29T08:01:21;99637.38;;;28.17;44.16
39449;BME280;25151;45.566;9.382;2022-07-29T08:04:23;99627.84;;;28.20;43.83
39449;BME280;25151;45.566;9.382;2022-07-29T08:07:25;99636.38;;;28.20;44.17
39449;BME280;25151;45.566;9.382;2022-07-29T08:10:25;99643.06;;;28.23;43.93
39449;BME280;25151;45.566;9.382;2022-07-29T08:13:44;99637.91;;;28.21;43.71
39449;BME280;25151;45.566;9.382;2022-07-29T08:16:47;99637.16;;;28.26;44.02
39449;BME280;25151;45.566;9.382;2022-07-29T08:19:48;99633.06;;;28.27;44.24
39449;BME280;25151;45.566;9.382;2022-07-29T08:22:51;99637.94;;;28.27;44.20
39449;BME280;25151;45.566;9.382;2022-07-29T08:25:52;99633.31;;;28.29;43.88
39449;BME280;25151;45.566;9.382;2022-07-29T08:28:53;99643.34;;;28.30;44.00
39449;BME280;25151;45.566;9.382;2022-07-29T08:31:54;99644.13;;;28.31;43.96
39449;BME280;25151;45.566;9.382;2022-07-29T08:34:54;99650.84;;;28.33;44.17
39449;BME280;25151;45.566;9.382;2022-07-29T08:37:55;99642.34;;;28.33;43.96
39449;BME280;25151;45.566;9.382;2022-07-29T08:41:00;99649.56;;;28.34;43.92
39449;BME280;25151;45.566;9.382;2022-07-29T08:44:03;99649.06;;;28.36;44.24
39449;BME280;25151;45.566;9.382;2022-07-29T08:47:03;99649.06;;;28.36;44.29
39449;BME280;25151;45.566;9.382;2022-07-29T08:50:05;99651.41;;;28.37;44.28
39449;BME280;25151;45.566;9.382;2022-07-29T08:53:11;99644.47;;;28.38;43.87
39449;BME280;25151;45.566;9.382;2022-07-29T08:56:13;99647.28;;;28.38;44.10
39449;BME280;25151;45.566;9.382;2022-07-29T08:59:14;99646.03;;;28.39;43.64
39449;BME280;25151;45.566;9.382;2022-07-29T09:02:22;99646.81;;;28.40;44.55
39449;BME280;25151;45.566;9.382;2022-07-29T09:05:24;99644.22;;;28.42;44.05
39449;BME280;25151;45.566;9.382;2022-07-29T09:08:25;99635.22;;;28.43;43.65
39449;BME280;25151;45.566;9.382;2022-07-29T09:11:26;99634.44;;;28.43;43.98
39449;BME280;25151;45.566;9.382;2022-07-29T09:14:27;99639.59;;;28.45;43.89
39449;BME280;25151;45.566;9.382;2022-07-29T09:17:48;99625.41;;;28.45;43.79
39449;BME280;25151;45.566;9.382;2022-07-29T09:20:52;99633.41;;;28.46;44.29
39449;BME280;25151;45.566;9.382;2022-07-29T09:24:12;99617.97;;;28.47;44.27
39449;BME280;25151;45.566;9.382;2022-07-29T09:27:21;99623.63;;;28.47;44.14
39449;BME280;25151;45.566;9.382;2022-07-29T09:30:22;99625.19;;;28.48;44.23
39449;BME280;25151;45.566;9.382;2022-07-29T09:33:24;99621.56;;;28.48;44.05
39449;BME280;25151;45.566;9.382;2022-07-29T09:36:31;99631.63;;;28.49;44.19
39449;BME280;25151;45.566;9.382;2022-07-29T09:39:39;99633.16;;;28.50;43.89
39449;BME280;25151;45.566;9.382;2022-07-29T09:42:46;99624.94;;;28.52;44.08
39449;BME280;25151;45.566;9.382;2022-07-29T09:45:47;99620.03;;;28.52;44.03
39449;BME280;25151;45.566;9.382;2022-07-29T09:49:08;99616.69;;;28.54;44.24
39449;BME280;25151;45.566;9.382;2022-07-29T09:52:09;99616.69;;;28.54;43.99
39449;BME280;25151;45.566;9.382;2022-07-29T09:55:11;99607.91;;;28.52;43.88
39449;BME280;25151;45.566;9.382;2022-07-29T09:58:20;99606.88;;;28.55;43.89
39449;BME280;25151;45.566;9.382;2022-07-29T10:01:28;99589.84;;;28.55;43.89
39449;BME280;25151;45.566;9.382;2022-07-29T10:04:42;99602.00;;;28.55;44.51
39449;BME280;25151;45.566;9.382;2022-07-29T10:10:44;99584.19;;;28.55;44.68
39449;BME280;25151;45.566;9.382;2022-07-29T10:13:48;99578.03;;;28.56;44.85
39449;BME280;25151;45.566;9.382;2022-07-29T10:16:48;99573.88;;;28.57;44.97
39449;BME280;25151;45.566;9.382;2022-07-29T10:19:49;99573.41;;;28.59;44.77
39449;BME280;25151;45.566;9.382;2022-07-29T10:22:51;99557.91;;;28.60;44.75
39449;BME280;25151;45.566;9.382;2022-07-29T10:25:52;99556.38;;;28.59;44.66
39449;BME280;25151;45.566;9.382;2022-07-29T10:28:53;99565.13;;;28.61;44.80
39449;BME280;25151;45.566;9.382;2022-07-29T10:35:21;99555.34;;;28.62;44.52
39449;BME280;25151;45.566;9.382;2022-07-29T10:42:17;99553.53;;;28.64;44.52
39449;BME280;25151;45.566;9.382;2022-07-29T10:45:18;99555.59;;;28.64;44.74
39449;BME280;25151;45.566;9.382;2022-07-29T10:48:19;99551.75;;;28.67;48.11
39449;BME280;25151;45.566;9.382;2022-07-29T10:51:20;99546.53;;;28.49;47.52
39449;BME280;25151;45.566;9.382;2022-07-29T10:57:36;99544.19;;;27.87;46.75
39449;BME280;25151;45.566;9.382;2022-07-29T11:00:37;99545.75;;;27.88;46.49
39449;BME280;25151;45.566;9.382;2022-07-29T11:03:48;99545.00;;;27.88;44.81
39449;BME280;25151;45.566;9.382;2022-07-29T11:17:02;99540.88;;;27.94;43.71
39449;BME280;25151;45.566;9.382;2022-07-29T11:23:45;99532.59;;;27.80;43.26
39449;BME280;25151;45.566;9.382;2022-07-29T11:27:18;99527.47;;;27.89;43.24
39449;BME280;25151;45.566;9.382;2022-07-29T11:30:20;99519.50;;;27.88;42.92
39449;BME280;25151;45.566;9.382;2022-07-29T11:33:31;99518.97;;;27.89;42.30
39449;BME280;25151;45.566;9.382;2022-07-29T11:36:32;99508.66;;;27.86;41.83
39449;BME280;25151;45.566;9.382;2022-07-29T11:39:34;99513.81;;;27.88;41.98
39449;BME280;25151;45.566;9.382;2022-07-29T11:45:45;99515.31;;;27.83;41.00
39449;BME280;25151;45.566;9.382;2022-07-29T11:48:46;99512.00;;;27.85;41.21
39449;BME280;25151;45.566;9.382;2022-07-29T11:51:54;99517.38;;;27.77;40.86
39449;BME280;25151;45.566;9.382;2022-07-29T11:54:57;99516.38;;;27.86;40.44
39449;BME280;25151;45.566;9.382;2022-07-29T11:58:00;99516.66;;;27.88;40.65
39449;BME280;25151;45.566;9.382;2022-07-29T12:01:01;99502.97;;;27.86;40.41
39449;BME280;25151;45.566;9.382;2022-07-29T12:04:03;99517.59;;;27.74;40.32
39449;BME280;25151;45.566;9.382;2022-07-29T12:07:04;99508.53;;;27.64;40.47
39449;BME280;25151;45.566;9.382;2022-07-29T12:10:06;99509.25;;;27.59;40.58
39449;BME280;25151;45.566;9.382;2022-07-29T12:13:07;99509.81;;;27.68;40.47
39449;BME280;25151;45.566;9.382;2022-07-29T12:16:08;99508.78;;;27.71;40.40
39449;BME280;25151;45.566;9.382;2022-07-29T12:19:08;99508.31;;;27.73;40.73
39449;BME280;25151;45.566;9.382;2022-07-29T12:22:09;99506.69;;;27.61;40.60
39449;BME280;25151;45.566;9.382;2022-07-29T12:25:11;99504.41;;;27.65;40.54
39449;BME280;25151;45.566;9.382;2022-07-29T12:28:16;99495.72;;;27.74;40.25
39449;BME280;25151;45.566;9.382;2022-07-29T12:31:18;99499.34;;;27.80;40.17
39449;BME280;25151;45.566;9.382;2022-07-29T12:34:22;99483.59;;;27.74;39.86
39449;BME280;25151;45.566;9.382;2022-07-29T12:37:23;99485.63;;;27.73;39.79
39449;BME280;25151;45.566;9.382;2022-07-29T12:40:24;99471.75;;;27.75;39.25
39449;BME280;25151;45.566;9.382;2022-07-29T12:43:24;99471.03;;;27.80;39.17
39449;BME280;25151;45.566;9.382;2022-07-29T12:46:25;99474.88;;;27.77;39.28
39449;BME280;25151;45.566;9.382;2022-07-29T12:49:26;99480.91;;;27.59;39.05
39449;BME280;25151;45.566;9.382;2022-07-29T12:52:33;99472.34;;;27.48;39.15
39449;BME280;25151;45.566;9.382;2022-07-29T12:55:45;99464.34;;;27.40;39.73
39449;BME280;25151;45.566;9.382;2022-07-29T12:58:51;99458.94;;;27.42;39.95
39449;BME280;25151;45.566;9.382;2022-07-29T13:02:21;99432.00;;;27.53;39.94
39449;BME280;25151;45.566;9.382;2022-07-29T13:05:22;99433.31;;;27.63;40.08
39449;BME280;25151;45.566;9.382;2022-07-29T13:08:24;99432.28;;;27.60;40.19
39449;BME280;25151;45.566;9.382;2022-07-29T13:11:37;99436.38;;;27.59;40.19
39449;BME280;25151;45.566;9.382;2022-07-29T13:14:46;99414.78;;;27.62;39.45
39449;BME280;25151;45.566;9.382;2022-07-29T13:17:47;99411.50;;;27.75;39.29
39449;BME280;25151;45.566;9.382;2022-07-29T13:20:48;99415.72;;;27.96;39.21
39449;BME280;25151;45.566;9.382;2022-07-29T13:23:49;99412.09;;;28.07;39.19
39449;BME280;25151;45.566;9.382;2022-07-29T13:26:50;99416.25;;;28.17;39.37
39449;BME280;25151;45.566;9.382;2022-07-29T13:29:56;99417.03;;;28.23;39.66
39449;BME280;25151;45.566;9.382;2022-07-29T13:32:58;99411.13;;;28.27;39.85
39449;BME280;25151;45.566;9.382;2022-07-29T13:35:58;99407.00;;;28.33;40.00
39449;BME280;25151;45.566;9.382;2022-07-29T13:38:59;99406.25;;;28.33;40.41
39449;BME280;25151;45.566;9.382;2022-07-29T13:42:04;99394.69;;;28.36;40.60
39449;BME280;25151;45.566;9.382;2022-07-29T13:45:06;99399.81;;;28.38;40.38
39449;BME280;25151;45.566;9.382;2022-07-29T13:48:07;99402.16;;;28.39;40.95
39449;BME280;25151;45.566;9.382;2022-07-29T13:51:09;99403.94;;;28.42;41.04
39449;BME280;25151;45.566;9.382;2022-07-29T13:54:11;99401.91;;;28.43;41.05
39449;BME280;25151;45.566;9.382;2022-07-29T13:57:14;99387.19;;;28.45;41.43
39449;BME280;25151;45.566;9.382;2022-07-29T14:00:15;99378.69;;;28.45;41.18
39449;BME280;25151;45.566;9.382;2022-07-29T14:03:16;99383.84;;;28.46;41.18
39449;BME280;25151;45.566;9.382;2022-07-29T14:06:17;99379.75;;;28.47;41.35
39449;BME280;25151;45.566;9.382;2022-07-29T14:09:18;99374.84;;;28.48;41.61
39449;BME280;25151;45.566;9.382;2022-07-29T14:12:20;99365.81;;;28.49;41.72
39449;BME280;25151;45.566;9.382;2022-07-29T14:15:23;99363.72;;;28.50;41.61
39449;BME280;25151;45.566;9.382;2022-07-29T14:18:24;99382.28;;;28.51;41.48
39449;BME280;25151;45.566;9.382;2022-07-29T14:21:27;99375.34;;;28.52;42.05
39449;BME280;25151;45.566;9.382;2022-07-29T14:24:29;99380.50;;;28.53;41.69
39449;BME280;25151;45.566;9.382;2022-07-29T14:27:30;99389.78;;;28.54;42.24
39449;BME280;25151;45.566;9.382;2022-07-29T14:30:30;99376.09;;;28.58;42.01
39449;BME280;25151;45.566;9.382;2022-07-29T14:33:31;99368.13;;;28.56;42.33
39449;BME280;25151;45.566;9.382;2022-07-29T14:36:32;99357.03;;;28.58;42.20
39449;BME280;25151;45.566;9.382;2022-07-29T14:39:34;99370.72;;;28.60;42.62
39449;BME280;25151;45.566;9.382;2022-07-29T14:42:36;99360.66;;;28.59;42.21
39449;BME280;25151;45.566;9.382;2022-07-29T14:45:38;99351.09;;;28.62;42.34
39449;BME280;25151;45.566;9.382;2022-07-29T14:48:39;99345.41;;;28.62;42.50
39449;BME280;25151;45.566;9.382;2022-07-29T14:51:39;99350.84;;;28.60;42.98
39449;BME280;25151;45.566;9.382;2022-07-29T14:54:41;99351.09;;;28.62;43.10
39449;BME280;25151;45.566;9.382;2022-07-29T14:57:42;99356.00;;;28.61;42.87
39449;BME280;25151;45.566;9.382;2022-07-29T15:00:42;99349.56;;;28.61;42.67
39449;BME280;25151;45.566;9.382;2022-07-29T15:03:44;99348.00;;;28.60;43.24
39449;BME280;25151;45.566;9.382;2022-07-29T15:06:44;99353.94;;;28.62;43.06
39449;BME280;25151;45.566;9.382;2022-07-29T15:09:46;99355.22;;;28.61;43.06
39449;BME280;25151;45.566;9.382;2022-07-29T15:12:47;99352.38;;;28.61;42.99
39449;BME280;25151;45.566;9.382;2022-07-29T15:15:49;99352.66;;;28.63;43.05
39449;BME280;25151;45.566;9.382;2022-07-29T15:18:50;99340.50;;;28.62;43.41
39449;BME280;25151;45.566;9.382;2022-07-29T15:21:50;99342.09;;;28.63;43.32
39449;BME280;25151;45.566;9.382;2022-07-29T15:24:51;99347.00;;;28.63;43.24
39449;BME280;25151;45.566;9.382;2022-07-29T15:27:55;99375.34;;;28.63;42.98
39449;BME280;25151;45.566;9.382;2022-07-29T15:30:56;99384.88;;;28.65;43.22
39449;BME280;25151;45.566;9.382;2022-07-29T15:33:59;99396.22;;;28.65;43.16
39449;BME280;25151;45.566;9.382;2022-07-29T15:37:03;99408.34;;;28.66;43.63
39449;BME280;25151;45.566;9.382;2022-07-29T15:40:08;99415.59;;;28.67;43.62
39449;BME280;25151;45.566;9.382;2022-07-29T15:43:09;99411.19;;;28.66;43.66
39449;BME280;25151;45.566;9.382;2022-07-29T15:46:16;99421.25;;;28.67;43.48
39449;BME280;25151;45.566;9.382;2022-07-29T15:49:38;99452.47;;;28.67;43.69
39449;BME280;25151;45.566;9.382;2022-07-29T15:52:40;99499.63;;;28.70;43.53
39449;BME280;25151;45.566;9.382;2022-07-29T15:55:43;99546.59;;;28.71;43.48
39449;BME280;25151;45.566;9.382;2022-07-29T15:58:44;99596.63;;;28.74;43.80
39449;BME280;25151;45.566;9.382;2022-07-29T16:01:46;99612.09;;;28.73;44.00
39449;BME280;25151;45.566;9.382;2022-07-29T16:04:53;99635.56;;;28.74;43.99
39449;BME280;25151;45.566;9.382;2022-07-29T16:07:53;99580.91;;;28.73;44.27
39449;BME280;25151;45.566;9.382;2022-07-29T16:10:56;99536.78;;;28.72;44.11
39449;BME280;25151;45.566;9.382;2022-07-29T16:13:58;99485.72;;;28.72;44.52
39449;BME280;25151;45.566;9.382;2022-07-29T16:16:59;99494.47;;;28.74;44.38
39449;BME280;25151;45.566;9.382;2022-07-29T16:20:07;99505.84;;;28.74;44.38
39449;BME280;25151;45.566;9.382;2022-07-29T16:23:08;99500.97;;;28.75;44.42
39449;BME280;25151;45.566;9.382;2022-07-29T16:26:11;99496.06;;;28.75;44.18
39449;BME280;25151;45.566;9.382;2022-07-29T16:29:13;99489.09;;;28.76;44.25
39449;BME280;25151;45.566;9.382;2022-07-29T16:32:14;99487.78;;;28.77;44.64
39449;BME280;25151;45.566;9.382;2022-07-29T16:35:14;99473.34;;;28.75;44.63
39449;BME280;25151;45.566;9.382;2022-07-29T16:38:15;99482.09;;;28.77;44.41
39449;BME280;25151;45.566;9.382;2022-07-29T16:41:16;99519.28;;;28.79;44.85
39449;BME280;25151;45.566;9.382;2022-07-29T16:44:16;99571.13;;;28.80;44.62
39449;BME280;25151;45.566;9.382;2022-07-29T16:47:17;99586.31;;;28.82;45.03
39449;BME280;25151;45.566;9.382;2022-07-29T16:50:18;99581.44;;;28.83;44.69
39449;BME280;25151;45.566;9.382;2022-07-29T16:53:19;99590.72;;;28.83;45.19